createdAt,value
2022-09-12T00:01:20.642Z,12.32
2022-09-12T00:03:48.471Z,9.40
2022-09-12T00:06:25.302Z,15.57
2022-09-12T00:08:59.182Z,10.10
2022-09-12T00:11:39.459Z,12.35
2022-09-12T00:14:09.091Z,9.93
2022-09-12T00:16:40.140Z,10.82
2022-09-12T00:19:08.859Z,11.00
2022-09-12T00:21:38.829Z,9.10
2022-09-12T00:24:07.362Z,15.32
2022-09-12T00:26:35.407Z,11.25
2022-09-12T00:29:02.946Z,12.40
2022-09-12T00:31:30.809Z,10.18
2022-09-12T00:34:00.945Z,11.60
2022-09-12T00:36:30.342Z,11.75
2022-09-12T00:38:58.585Z,10.32
2022-09-12T00:41:33.295Z,15.55
2022-09-12T00:44:23.589Z,9.77
2022-09-12T00:47:16.585Z,9.60
2022-09-12T00:49:56.430Z,12.88
2022-09-12T00:52:36.041Z,12.43
2022-09-12T00:57:57.924Z,13.20
2022-09-12T01:00:28.195Z,14.57
2022-09-12T01:03:02.275Z,16.75
2022-09-12T01:05:34.142Z,12.50
2022-09-12T01:08:03.920Z,12.50
2022-09-12T01:10:34.718Z,12.40
2022-09-12T01:13:06.204Z,13.15
2022-09-12T01:15:36.725Z,10.00
2022-09-12T01:20:46.827Z,15.02
2022-09-12T01:23:39.315Z,9.70
2022-09-12T01:26:42.837Z,9.60
2022-09-12T01:29:32.516Z,12.82
2022-09-12T01:32:15.795Z,13.45
2022-09-12T01:34:53.969Z,13.85
2022-09-12T01:37:34.312Z,13.50
2022-09-12T01:40:16.346Z,22.33
2022-09-12T01:43:00.005Z,37.35
2022-09-12T01:45:41.318Z,42.70
2022-09-12T01:48:22.852Z,41.90
2022-09-12T01:51:03.946Z,41.70
2022-09-12T01:53:56.950Z,45.47
2022-09-12T01:56:28.385Z,44.42
2022-09-12T01:59:09.698Z,38.45
2022-09-12T02:01:48.728Z,46.70
2022-09-12T02:04:20.991Z,43.72
2022-09-12T02:06:48.790Z,46.95
2022-09-12T02:09:47.092Z,49.38
2022-09-12T02:12:24.814Z,48.80
2022-09-12T02:14:59.792Z,46.15
2022-09-12T02:17:28.447Z,50.13
2022-09-12T02:20:03.160Z,44.97
2022-09-12T02:22:32.156Z,44.00
2022-09-12T02:25:01.326Z,40.80
2022-09-12T02:27:46.799Z,39.10
2022-09-12T02:30:16.638Z,38.67
2022-09-12T02:33:01.958Z,36.03
2022-09-12T02:35:44.470Z,26.73
2022-09-12T02:38:20.290Z,32.95
2022-09-12T02:40:47.835Z,29.45
2022-09-12T02:43:15.495Z,30.90
2022-09-12T02:45:43.105Z,27.92
2022-09-12T02:48:20.455Z,27.80
2022-09-12T02:50:48.206Z,26.65
2022-09-12T02:53:18.210Z,28.67
2022-09-12T02:55:45.910Z,24.52
2022-09-12T02:58:18.744Z,27.10
2022-09-12T03:01:08.175Z,25.48
2022-09-12T03:03:52.460Z,25.98
2022-09-12T03:07:01.646Z,22.95
2022-09-12T03:09:53.933Z,19.98
2022-09-12T03:12:55.565Z,21.15
2022-09-12T03:16:01.763Z,17.45
2022-09-12T03:18:51.151Z,20.83
2022-09-12T03:21:41.216Z,14.60
2022-09-12T03:24:11.748Z,14.70
2022-09-12T03:26:57.851Z,18.30
2022-09-12T03:29:27.489Z,11.30
2022-09-12T03:31:57.140Z,13.48
2022-09-12T03:34:27.788Z,17.98
2022-09-12T03:36:56.086Z,10.93
2022-09-12T03:39:28.065Z,12.45
2022-09-12T03:41:56.034Z,15.55
2022-09-12T03:44:24.895Z,12.38
2022-09-12T03:46:52.408Z,12.77
2022-09-12T03:49:19.877Z,14.95
2022-09-12T03:51:47.449Z,14.07
2022-09-12T03:54:14.919Z,14.70
2022-09-12T03:56:42.426Z,14.48
2022-09-12T03:59:10.280Z,19.42
2022-09-12T04:01:38.527Z,13.38
2022-09-12T04:04:05.963Z,11.20
2022-09-12T04:06:33.503Z,14.10
2022-09-12T04:09:01.291Z,13.90
2022-09-12T04:11:29.384Z,12.85
2022-09-12T04:13:56.856Z,15.68
2022-09-12T04:16:24.341Z,17.23
2022-09-12T04:18:51.842Z,11.07
2022-09-12T04:21:21.923Z,17.90
2022-09-12T04:23:49.641Z,20.80
2022-09-12T04:26:19.260Z,13.63
2022-09-12T04:31:20.775Z,11.63
2022-09-12T04:33:53.307Z,14.77
2022-09-12T04:36:21.034Z,15.05
2022-09-12T04:38:49.940Z,15.57
2022-09-12T04:41:28.537Z,12.33
2022-09-12T04:43:58.946Z,19.52
2022-09-12T04:46:26.659Z,11.95
2022-09-12T04:48:56.851Z,15.75
2022-09-12T04:51:28.745Z,14.73
2022-09-12T04:53:59.060Z,13.43
2022-09-12T04:56:27.703Z,14.30
2022-09-12T04:58:58.439Z,23.60
2022-09-12T05:01:28.334Z,22.50
2022-09-12T05:06:26.316Z,14.10
2022-09-12T05:08:56.183Z,23.90
2022-09-12T05:11:36.820Z,14.10
2022-09-12T05:14:14.828Z,21.92
2022-09-12T05:16:46.058Z,15.65
2022-09-12T05:19:16.914Z,14.15
2022-09-12T05:21:44.430Z,15.40
2022-09-12T05:24:12.170Z,20.17
2022-09-12T05:26:39.852Z,15.50
2022-09-12T05:29:07.418Z,19.98
2022-09-12T05:31:36.682Z,15.32
2022-09-12T05:34:04.750Z,19.33
2022-09-12T05:36:32.284Z,15.20
2022-09-12T05:39:00.656Z,16.20
2022-09-12T05:41:33.928Z,19.73
2022-09-12T05:44:11.089Z,15.32
2022-09-12T05:46:41.711Z,19.80
2022-09-12T05:49:12.476Z,20.40
2022-09-12T05:51:44.023Z,15.77
2022-09-12T05:54:14.988Z,16.75
2022-09-12T05:56:44.227Z,19.98
2022-09-12T05:59:14.953Z,17.48
2022-09-12T06:01:43.367Z,21.67
2022-09-12T06:04:12.177Z,16.17
2022-09-12T06:06:42.611Z,16.27
2022-09-12T06:09:10.280Z,16.85
2022-09-12T06:11:41.129Z,17.55
2022-09-12T06:14:11.033Z,21.05
2022-09-12T06:16:39.779Z,17.60
2022-09-12T06:19:13.139Z,25.27
2022-09-12T06:21:41.283Z,20.92
2022-09-12T06:24:09.746Z,16.85
2022-09-12T06:26:37.269Z,26.00
2022-09-12T06:29:05.078Z,21.17
2022-09-12T06:31:37.935Z,22.55
2022-09-12T06:34:07.590Z,19.23
2022-09-12T06:36:40.923Z,21.20
2022-09-12T06:39:15.123Z,22.38
2022-09-12T06:41:44.220Z,18.67
2022-09-12T06:44:21.250Z,27.98
2022-09-12T06:46:49.109Z,19.10
2022-09-12T06:49:17.928Z,19.77
2022-09-12T06:51:45.436Z,32.15
2022-09-12T06:54:15.427Z,22.00
2022-09-12T06:56:43.148Z,25.13
2022-09-12T06:59:10.768Z,21.80
2022-09-12T07:01:38.428Z,24.50
2022-09-12T07:04:06.167Z,20.75
2022-09-12T07:06:39.930Z,25.10
2022-09-12T07:09:11.314Z,20.27
2022-09-12T07:11:40.578Z,26.88
2022-09-12T07:14:12.120Z,24.83
2022-09-12T07:16:39.851Z,20.55
2022-09-12T07:19:08.507Z,17.27
2022-09-12T07:21:40.026Z,24.08
2022-09-12T07:24:10.253Z,18.80
2022-09-12T07:26:40.596Z,30.15
2022-09-12T07:29:35.940Z,20.08
2022-09-12T07:32:05.668Z,21.98
2022-09-12T07:34:33.984Z,26.60
2022-09-12T07:37:01.572Z,20.55
2022-09-12T07:39:29.127Z,25.92
2022-09-12T07:41:57.434Z,25.38
2022-09-12T07:44:25.495Z,19.00
2022-09-12T07:46:52.989Z,17.38
2022-09-12T07:49:20.487Z,16.83
2022-09-12T07:51:48.919Z,14.35
2022-09-12T07:54:16.872Z,19.17
2022-09-12T07:56:45.953Z,17.25
2022-09-12T07:59:13.727Z,22.00
2022-09-12T08:01:41.718Z,23.85
2022-09-12T08:04:09.241Z,15.57
2022-09-12T08:06:37.090Z,13.60
2022-09-12T08:09:05.784Z,13.10
2022-09-12T08:11:34.203Z,15.90
2022-09-12T08:14:03.185Z,16.23
2022-09-12T08:16:32.255Z,20.83
2022-09-12T08:19:04.509Z,16.67
2022-09-12T08:21:34.193Z,25.67
2022-09-12T08:24:06.017Z,16.70
2022-09-12T08:26:34.970Z,22.50
2022-09-12T08:29:04.241Z,23.38
2022-09-12T08:31:37.035Z,24.23
2022-09-12T08:34:06.033Z,25.50
2022-09-12T08:36:34.052Z,25.92
2022-09-12T08:39:05.286Z,31.00
2022-09-12T08:41:37.943Z,18.77
2022-09-12T08:44:14.571Z,20.88
2022-09-12T08:47:05.326Z,28.35
2022-09-12T08:49:42.636Z,20.40
2022-09-12T08:52:18.901Z,9.40
2022-09-12T08:54:46.927Z,12.88
2022-09-12T08:57:16.027Z,11.70
2022-09-12T08:59:45.623Z,8.15
2022-09-12T09:02:31.728Z,14.95
2022-09-12T09:05:38.089Z,13.23
2022-09-12T09:08:14.418Z,11.48
2022-09-12T09:10:58.799Z,10.77
2022-09-12T09:14:05.399Z,11.90
2022-09-12T09:16:41.272Z,6.05
2022-09-12T09:19:17.484Z,10.07
2022-09-12T09:21:59.410Z,11.18
2022-09-12T09:24:38.095Z,9.70
2022-09-12T09:27:37.299Z,10.90
2022-09-12T09:30:16.770Z,14.80
2022-09-12T09:32:50.546Z,8.75
2022-09-12T09:35:27.978Z,14.13
2022-09-12T09:38:26.547Z,17.35
2022-09-12T09:41:12.438Z,12.30
2022-09-12T09:43:40.252Z,18.30
2022-09-12T09:46:08.141Z,18.38
2022-09-12T09:48:40.850Z,11.95
2022-09-12T09:51:09.460Z,14.45
2022-09-12T09:53:56.565Z,11.40
2022-09-12T09:56:29.014Z,13.57
2022-09-12T09:58:57.190Z,12.48
2022-09-12T10:01:27.552Z,19.30
2022-09-12T10:03:56.468Z,12.30
2022-09-12T10:06:30.995Z,11.82
2022-09-12T10:09:15.098Z,15.35
2022-09-12T10:11:45.820Z,18.95
2022-09-12T10:14:28.588Z,21.65
2022-09-12T10:16:57.551Z,23.27
2022-09-12T10:19:35.353Z,14.38
2022-09-12T10:22:04.387Z,15.90
2022-09-12T10:24:41.260Z,13.63
2022-09-12T10:27:33.770Z,17.00
2022-09-12T10:30:03.280Z,19.77
2022-09-12T10:32:38.425Z,20.20
2022-09-12T10:35:16.031Z,14.90
2022-09-12T10:37:57.365Z,17.27
2022-09-12T10:40:28.198Z,18.38
2022-09-12T10:42:58.269Z,15.90
2022-09-12T10:45:37.658Z,21.75
2022-09-12T10:48:31.763Z,24.35
2022-09-12T10:51:00.981Z,27.13
2022-09-12T10:53:40.882Z,24.77
2022-09-12T10:59:22.987Z,18.17
2022-09-12T11:02:02.956Z,22.35
2022-09-12T11:04:56.721Z,20.92
2022-09-12T11:07:39.489Z,22.42
2022-09-12T11:10:26.950Z,17.67
2022-09-12T11:13:16.487Z,21.63
2022-09-12T11:16:23.127Z,19.05
2022-09-12T11:19:04.214Z,20.88
2022-09-12T11:21:50.515Z,18.67
2022-09-12T11:24:27.149Z,15.15
2022-09-12T11:27:03.928Z,15.82
2022-09-12T11:29:45.788Z,10.80
2022-09-12T11:32:37.790Z,12.38
2022-09-12T11:35:31.387Z,16.40
2022-09-12T11:38:13.148Z,14.27
2022-09-12T11:41:01.878Z,13.18
2022-09-12T11:43:48.152Z,15.00
2022-09-12T11:46:31.079Z,15.32
2022-09-12T11:49:08.167Z,12.13
2022-09-12T11:51:41.274Z,66.88
2022-09-12T11:54:12.223Z,16.00
2022-09-12T11:56:56.520Z,14.30
2022-09-12T11:59:30.231Z,22.15
2022-09-12T12:02:00.390Z,14.00
2022-09-12T12:04:37.732Z,17.50
2022-09-12T12:07:10.614Z,19.48
2022-09-12T12:09:50.562Z,18.20
2022-09-12T12:12:25.970Z,17.02
2022-09-12T12:14:55.623Z,18.30
2022-09-12T12:17:27.097Z,21.75
2022-09-12T12:20:07.689Z,16.52
2022-09-12T12:22:36.279Z,18.27
2022-09-12T12:25:13.021Z,16.52
2022-09-12T12:28:34.885Z,15.60
2022-09-12T12:31:03.434Z,20.20
2022-09-12T12:33:30.973Z,13.18
2022-09-12T12:36:03.299Z,17.88
2022-09-12T12:38:36.261Z,21.52
2022-09-12T12:41:19.068Z,21.13
2022-09-12T12:43:56.227Z,17.00
2022-09-12T12:46:29.457Z,17.75
2022-09-12T12:49:26.989Z,19.00
2022-09-12T12:51:54.507Z,14.23
2022-09-12T12:54:40.628Z,16.23
2022-09-12T12:57:41.523Z,15.90
2022-09-12T13:00:28.257Z,19.23
2022-09-12T13:02:58.261Z,13.70
2022-09-12T13:05:29.522Z,14.52
2022-09-12T13:08:03.585Z,17.70
2022-09-12T13:10:32.528Z,16.55
2022-09-12T13:13:05.390Z,19.33
2022-09-12T13:15:36.058Z,20.88
2022-09-12T13:18:33.416Z,17.98
2022-09-12T13:21:10.400Z,17.60
2022-09-12T13:23:38.202Z,17.42
2022-09-12T13:26:12.511Z,12.25
2022-09-12T13:28:40.515Z,18.15
2022-09-12T13:31:10.933Z,15.43
2022-09-12T13:33:49.751Z,14.57
2022-09-12T13:36:32.348Z,12.83
2022-09-12T13:39:22.071Z,17.30
2022-09-12T13:44:22.300Z,11.52
2022-09-12T13:46:51.671Z,13.48
2022-09-12T13:49:37.119Z,15.80
2022-09-12T13:52:20.122Z,18.60
2022-09-12T13:54:51.909Z,12.15
2022-09-12T13:57:41.311Z,12.20
2022-09-12T14:00:19.663Z,15.90
2022-09-12T14:02:48.558Z,14.63
2022-09-12T14:05:25.722Z,16.52
2022-09-12T14:07:54.540Z,14.52
2022-09-12T14:10:33.006Z,17.23
2022-09-12T14:13:11.836Z,14.15
2022-09-12T14:15:43.920Z,15.70
2022-09-12T14:18:23.428Z,17.58
2022-09-12T14:20:56.145Z,21.10
2022-09-12T14:23:33.304Z,26.70
2022-09-12T14:26:09.770Z,16.83
2022-09-12T14:28:39.572Z,14.13
2022-09-12T14:33:54.729Z,14.05
2022-09-12T14:36:41.832Z,15.05
2022-09-12T14:39:38.030Z,12.68
2022-09-12T14:42:16.665Z,11.55
2022-09-12T14:44:53.485Z,16.58
2022-09-12T14:47:27.394Z,15.02
2022-09-12T14:49:55.131Z,19.05
2022-09-12T14:52:29.803Z,13.48
2022-09-12T14:55:19.875Z,13.40
2022-09-12T14:57:48.020Z,12.70
2022-09-12T15:00:22.376Z,10.75
2022-09-12T15:02:52.278Z,19.67
2022-09-12T15:05:25.871Z,18.95
2022-09-12T15:08:02.237Z,15.55
2022-09-12T15:10:37.824Z,12.00
2022-09-12T15:13:06.267Z,13.95
2022-09-12T15:15:33.883Z,17.52
2022-09-12T15:18:06.250Z,11.50
2022-09-12T15:20:37.748Z,17.52
2022-09-12T15:23:10.611Z,16.35
2022-09-12T15:25:38.167Z,14.02
2022-09-12T15:28:17.596Z,16.67
2022-09-12T15:30:46.650Z,16.27
2022-09-12T15:33:14.629Z,14.52
2022-09-12T15:35:42.328Z,15.27
2022-09-12T15:38:09.828Z,20.42
2022-09-12T15:40:37.344Z,14.23
2022-09-12T15:43:05.095Z,19.13
2022-09-12T15:45:34.508Z,15.82
2022-09-12T15:50:31.152Z,19.87
2022-09-12T15:52:58.917Z,19.15
2022-09-12T15:55:32.322Z,25.13
2022-09-12T15:58:04.846Z,31.08
2022-09-12T16:00:36.201Z,32.13
2022-09-12T16:03:04.182Z,23.90
2022-09-12T16:05:31.958Z,22.75
2022-09-12T16:07:59.663Z,16.52
2022-09-12T16:10:31.276Z,14.88
2022-09-12T16:12:59.799Z,14.80
2022-09-12T16:15:27.414Z,16.20
2022-09-12T16:17:54.892Z,11.80
2022-09-12T16:20:25.981Z,12.10
2022-09-12T16:22:53.676Z,12.82
2022-09-12T16:25:21.131Z,10.63
2022-09-12T16:27:48.731Z,10.88
2022-09-12T16:30:16.381Z,10.18
2022-09-12T16:32:45.139Z,12.03
2022-09-12T16:35:12.962Z,14.05
2022-09-12T16:37:40.780Z,10.23
2022-09-12T16:40:09.803Z,8.55
2022-09-12T16:42:41.823Z,10.43
2022-09-12T16:45:12.235Z,11.32
2022-09-12T16:47:39.674Z,12.60
2022-09-12T16:50:07.912Z,8.85
2022-09-12T16:52:35.636Z,8.55
2022-09-12T16:55:04.640Z,10.27
2022-09-12T16:57:33.023Z,13.40
2022-09-12T17:00:00.630Z,8.75
2022-09-12T17:02:28.126Z,11.45
2022-09-12T17:04:55.776Z,8.05
2022-09-12T17:07:23.279Z,8.68
2022-09-12T17:09:51.465Z,8.77
2022-09-12T17:12:18.990Z,8.82
2022-09-12T17:14:46.434Z,9.18
2022-09-12T17:17:13.992Z,8.52
2022-09-12T17:19:43.433Z,14.45
2022-09-12T17:22:10.932Z,11.85
2022-09-12T17:24:39.446Z,9.85
2022-09-12T17:27:06.901Z,8.80
2022-09-12T17:29:36.980Z,7.88
2022-09-12T17:32:05.966Z,9.52
2022-09-12T17:34:33.561Z,10.65
2022-09-12T17:37:01.131Z,10.52
2022-09-12T17:39:28.615Z,11.35
2022-09-12T17:41:57.628Z,13.88
2022-09-12T17:44:30.262Z,9.57
2022-09-12T17:46:57.858Z,9.68
2022-09-12T17:49:25.821Z,10.00
2022-09-12T17:51:56.203Z,10.75
2022-09-12T17:54:24.559Z,10.85
2022-09-12T17:56:53.188Z,8.95
2022-09-12T17:59:24.805Z,10.52
2022-09-12T18:02:11.104Z,8.85
2022-09-12T18:04:40.713Z,11.88
2022-09-12T18:07:09.219Z,10.23
2022-09-12T18:09:37.497Z,13.82
2022-09-12T18:12:06.039Z,10.93
2022-09-12T18:14:33.725Z,10.60
2022-09-12T18:17:02.301Z,10.25
2022-09-12T18:19:29.875Z,10.85
2022-09-12T18:21:57.675Z,11.10
2022-09-12T18:24:26.522Z,14.63
2022-09-12T18:26:56.684Z,11.50
2022-09-12T18:29:28.110Z,12.48
2022-09-12T18:31:56.635Z,12.05
2022-09-12T18:34:24.151Z,12.45
2022-09-12T18:36:54.965Z,12.27
2022-09-12T18:39:26.860Z,14.85
2022-09-12T18:41:55.379Z,9.80
2022-09-12T18:44:22.901Z,12.15
2022-09-12T18:46:50.598Z,13.10
2022-09-12T18:49:18.737Z,12.90
2022-09-12T18:51:46.356Z,14.68
2022-09-12T18:54:14.649Z,12.25
2022-09-12T18:56:47.866Z,15.45
2022-09-12T18:59:18.033Z,11.95
2022-09-12T19:01:46.311Z,35.25
2022-09-12T19:04:14.495Z,15.35
2022-09-12T19:06:47.168Z,15.88
2022-09-12T19:09:17.707Z,17.70
2022-09-12T19:11:50.128Z,16.20
2022-09-12T19:14:22.611Z,17.20
2022-09-12T19:16:52.138Z,17.35
2022-09-12T19:19:20.660Z,21.70
2022-09-12T19:21:48.242Z,18.67
2022-09-12T19:24:17.204Z,20.33
2022-09-12T19:26:45.114Z,19.80
2022-09-12T19:29:16.717Z,20.00
2022-09-12T19:31:45.322Z,23.70
2022-09-12T19:34:13.791Z,20.55
2022-09-12T19:36:46.340Z,22.83
2022-09-12T19:39:16.659Z,25.25
2022-09-12T19:41:45.047Z,20.75
2022-09-12T19:44:13.279Z,21.63
2022-09-12T19:46:42.083Z,18.55
2022-09-12T19:49:11.292Z,16.45
2022-09-12T19:51:39.986Z,16.08
2022-09-12T19:54:07.906Z,15.82
2022-09-12T19:56:35.571Z,17.90
2022-09-12T19:59:03.201Z,18.98
2022-09-12T20:01:30.902Z,16.42
2022-09-12T20:03:58.993Z,17.65
2022-09-12T20:06:27.540Z,18.02
2022-09-12T20:08:55.614Z,17.20
2022-09-12T20:11:24.516Z,17.85
2022-09-12T20:14:03.780Z,15.27
2022-09-12T20:16:33.569Z,17.85
2022-09-12T20:19:07.038Z,16.05
2022-09-12T20:21:36.508Z,17.08
2022-09-12T20:24:12.852Z,17.92
2022-09-12T20:26:41.639Z,23.90
2022-09-12T20:29:10.157Z,23.73
2022-09-12T20:31:40.676Z,22.70
2022-09-12T20:34:17.047Z,24.10
2022-09-12T20:36:45.850Z,52.70
2022-09-12T20:39:21.991Z,20.98
2022-09-12T20:41:50.116Z,24.38
2022-09-12T20:44:17.969Z,17.67
2022-09-12T20:46:45.630Z,17.23
2022-09-12T20:49:13.227Z,23.58
2022-09-12T20:51:40.714Z,23.23
2022-09-12T20:54:08.277Z,21.42
2022-09-12T20:56:37.243Z,20.65
2022-09-12T20:59:06.430Z,26.65
2022-09-12T21:01:34.514Z,22.42
2022-09-12T21:04:02.604Z,19.73
2022-09-12T21:06:31.603Z,22.38
2022-09-12T21:08:59.922Z,23.02
2022-09-12T21:11:28.665Z,23.73
2022-09-12T21:13:56.526Z,22.03
2022-09-12T21:16:24.320Z,22.67
2022-09-12T21:18:58.115Z,20.52
2022-09-12T21:21:26.731Z,21.30
2022-09-12T21:23:58.556Z,17.70
2022-09-12T21:26:26.297Z,20.27
2022-09-12T21:28:53.864Z,25.23
2022-09-12T21:31:21.675Z,21.88
2022-09-12T21:33:50.445Z,37.08
2022-09-12T21:36:18.278Z,114.68
2022-09-12T21:38:45.828Z,27.63
2022-09-12T21:41:15.503Z,26.15
2022-09-12T21:43:44.063Z,24.23
2022-09-12T21:46:11.859Z,28.73
2022-09-12T21:48:40.488Z,31.73
2022-09-12T21:51:08.388Z,33.83
2022-09-12T21:53:36.743Z,30.00
2022-09-12T21:56:07.210Z,44.00
2022-09-12T21:58:35.611Z,35.88
2022-09-12T22:01:05.839Z,35.83
2022-09-12T22:03:33.685Z,34.78
2022-09-12T22:06:04.791Z,33.03
2022-09-12T22:08:36.222Z,37.67
2022-09-12T22:11:08.024Z,30.15
2022-09-12T22:13:41.654Z,25.35
2022-09-12T22:16:09.901Z,27.27
2022-09-12T22:18:38.256Z,24.15
2022-09-12T22:21:09.779Z,50.83
2022-09-12T22:23:56.071Z,22.45
2022-09-12T22:26:24.162Z,23.20
2022-09-12T22:28:51.681Z,24.25
2022-09-12T22:31:19.309Z,20.65
2022-09-12T22:33:47.228Z,20.60
2022-09-12T22:36:14.947Z,21.13
2022-09-12T22:38:42.563Z,20.25
2022-09-12T22:41:11.953Z,20.35
2022-09-12T22:43:39.588Z,20.13
2022-09-12T22:46:08.926Z,17.25
2022-09-12T22:48:38.228Z,21.42
2022-09-12T22:51:06.246Z,21.77
2022-09-12T22:53:34.444Z,17.20
2022-09-12T22:56:02.517Z,21.23
2022-09-12T22:58:30.096Z,18.17
2022-09-12T23:00:57.726Z,20.75
2022-09-12T23:03:25.526Z,23.15
2022-09-12T23:05:53.029Z,19.75
2022-09-12T23:08:20.544Z,18.70
2022-09-12T23:10:50.802Z,20.13
2022-09-12T23:13:18.378Z,21.73
2022-09-12T23:15:46.044Z,20.77
2022-09-12T23:18:13.617Z,24.38
2022-09-12T23:20:41.103Z,23.42
2022-09-12T23:23:09.728Z,20.65
2022-09-12T23:25:37.420Z,27.77
2022-09-12T23:28:05.162Z,24.30
2022-09-12T23:30:33.416Z,23.42
2022-09-12T23:33:02.343Z,22.17
2022-09-12T23:35:29.976Z,18.75
2022-09-12T23:37:57.874Z,24.52
2022-09-12T23:40:25.372Z,23.38
2022-09-12T23:42:53.032Z,21.20
2022-09-12T23:45:20.512Z,20.90
2022-09-12T23:47:48.034Z,25.30
2022-09-12T23:50:15.606Z,22.02
2022-09-12T23:52:43.250Z,21.92
2022-09-12T23:55:10.876Z,23.00
2022-09-12T23:57:39.491Z,24.00
